createdAt,value
2023-01-26T00:01:21.734Z,11.20
2023-01-26T00:03:49.859Z,9.60
2023-01-26T00:06:19.068Z,11.10
2023-01-26T00:08:51.515Z,14.70
2023-01-26T00:11:23.860Z,9.10
2023-01-26T00:13:50.911Z,11.10
2023-01-26T00:16:18.071Z,11.70
2023-01-26T00:18:45.601Z,13.60
2023-01-26T00:21:18.551Z,13.10
2023-01-26T00:23:46.233Z,11.70
2023-01-26T00:26:16.141Z,10.70
2023-01-26T00:28:43.719Z,12.60
2023-01-26T00:31:13.825Z,10.60
2023-01-26T00:33:40.845Z,10.30
2023-01-26T00:36:09.747Z,10.80
2023-01-26T00:38:36.792Z,11.80
2023-01-26T00:41:03.908Z,10.90
2023-01-26T00:43:30.877Z,8.40
2023-01-26T00:45:57.888Z,9.20
2023-01-26T00:48:25.057Z,9.40
2023-01-26T00:50:53.153Z,9.50
2023-01-26T00:53:20.038Z,8.10
2023-01-26T00:55:47.057Z,9.30
2023-01-26T00:58:14.040Z,7.20
2023-01-26T01:00:41.060Z,8.60
2023-01-26T01:03:08.179Z,11.50
2023-01-26T01:05:35.225Z,8.50
2023-01-26T01:08:03.132Z,6.80
2023-01-26T01:10:30.189Z,9.40
2023-01-26T01:12:57.200Z,6.10
2023-01-26T01:15:24.813Z,10.50
2023-01-26T01:17:52.223Z,8.30
2023-01-26T01:20:19.251Z,12.30
2023-01-26T01:22:46.822Z,12.50
2023-01-26T01:25:14.036Z,10.30
2023-01-26T01:27:41.037Z,9.00
2023-01-26T01:30:08.698Z,8.10
2023-01-26T01:32:36.645Z,8.50
2023-01-26T01:35:03.887Z,11.10
2023-01-26T01:37:30.931Z,9.00
2023-01-26T01:39:57.938Z,7.60
2023-01-26T01:42:25.825Z,8.70
2023-01-26T01:45:27.795Z,10.10
2023-01-26T01:47:58.665Z,7.30
2023-01-26T01:50:26.791Z,8.30
2023-01-26T01:52:55.793Z,11.30
2023-01-26T01:55:25.052Z,7.70
2023-01-26T01:57:59.678Z,7.50
2023-01-26T02:00:27.425Z,7.80
2023-01-26T02:03:10.954Z,8.60
2023-01-26T02:05:52.896Z,9.20
2023-01-26T02:08:23.617Z,9.00
2023-01-26T02:10:55.387Z,7.70
2023-01-26T02:13:24.594Z,7.10
2023-01-26T02:15:51.984Z,7.40
2023-01-26T02:18:19.607Z,8.20
2023-01-26T02:20:51.276Z,10.00
2023-01-26T02:23:30.358Z,6.60
2023-01-26T02:26:12.751Z,8.00
2023-01-26T02:28:42.281Z,7.30
2023-01-26T02:31:11.499Z,10.20
2023-01-26T02:33:39.674Z,9.40
2023-01-26T02:36:16.258Z,8.40
2023-01-26T02:38:47.913Z,10.60
2023-01-26T02:41:39.163Z,10.50
2023-01-26T02:44:09.949Z,10.20
2023-01-26T02:46:36.898Z,9.60
2023-01-26T02:49:22.408Z,9.30
2023-01-26T02:51:49.539Z,8.30
2023-01-26T02:54:35.292Z,8.90
2023-01-26T02:57:02.508Z,8.90
2023-01-26T02:59:29.474Z,8.80
2023-01-26T03:01:57.799Z,8.50
2023-01-26T03:04:24.849Z,7.40
2023-01-26T03:06:52.389Z,8.00
2023-01-26T03:09:19.417Z,11.20
2023-01-26T03:11:47.022Z,7.70
2023-01-26T03:14:15.325Z,9.80
2023-01-26T03:16:42.346Z,8.10
2023-01-26T03:19:31.372Z,9.80
2023-01-26T03:22:17.847Z,6.90
2023-01-26T03:25:03.701Z,11.80
2023-01-26T03:27:38.699Z,5.80
2023-01-26T03:30:06.279Z,11.40
2023-01-26T03:32:33.558Z,8.80
2023-01-26T03:35:00.967Z,7.90
2023-01-26T03:37:36.312Z,7.40
2023-01-26T03:40:28.030Z,8.60
2023-01-26T03:43:13.381Z,8.80
2023-01-26T03:45:58.907Z,11.20
2023-01-26T03:48:44.721Z,8.20
2023-01-26T03:51:30.220Z,6.70
2023-01-26T03:54:16.689Z,7.80
2023-01-26T03:56:44.037Z,8.90
2023-01-26T03:59:16.077Z,9.00
2023-01-26T04:02:04.868Z,9.50
2023-01-26T04:04:51.325Z,9.60
2023-01-26T04:07:38.681Z,7.80
2023-01-26T04:10:06.467Z,10.50
2023-01-26T04:12:34.151Z,8.80
2023-01-26T04:15:37.650Z,9.70
2023-01-26T04:18:26.125Z,10.00
2023-01-26T04:21:12.680Z,8.20
2023-01-26T04:23:41.579Z,7.40
2023-01-26T04:26:08.572Z,10.40
2023-01-26T04:28:36.472Z,7.50
2023-01-26T04:31:04.194Z,7.70
2023-01-26T04:33:35.001Z,8.80
2023-01-26T04:36:06.501Z,11.70
2023-01-26T04:38:35.199Z,8.40
2023-01-26T04:41:02.272Z,9.60
2023-01-26T04:43:32.129Z,9.30
2023-01-26T04:46:05.150Z,9.40
2023-01-26T04:48:35.131Z,8.80
2023-01-26T04:51:09.329Z,8.90
2023-01-26T04:53:36.307Z,8.60
2023-01-26T04:56:03.655Z,6.60
2023-01-26T04:58:32.562Z,8.70
2023-01-26T05:00:59.718Z,14.30
2023-01-26T05:03:26.916Z,9.70
2023-01-26T05:05:54.807Z,9.30
2023-01-26T05:08:24.043Z,7.60
2023-01-26T05:10:51.888Z,9.20
2023-01-26T05:13:35.499Z,8.00
2023-01-26T05:16:13.341Z,9.70
2023-01-26T05:19:06.554Z,9.30
2023-01-26T05:21:41.433Z,12.00
2023-01-26T05:24:08.655Z,9.40
2023-01-26T05:27:22.741Z,10.20
2023-01-26T05:29:59.810Z,6.80
2023-01-26T05:32:30.598Z,8.90
2023-01-26T05:34:57.711Z,11.90
2023-01-26T05:37:26.663Z,11.20
2023-01-26T05:39:53.780Z,8.00
2023-01-26T05:42:21.692Z,9.40
2023-01-26T05:44:51.779Z,10.00
2023-01-26T05:47:20.140Z,10.50
2023-01-26T05:49:49.826Z,8.50
2023-01-26T05:52:21.812Z,7.30
2023-01-26T05:54:50.130Z,11.70
2023-01-26T05:57:17.739Z,9.50
2023-01-26T05:59:50.048Z,12.90
2023-01-26T06:02:17.661Z,13.40
2023-01-26T06:04:45.233Z,13.50
2023-01-26T06:07:13.062Z,10.10
2023-01-26T06:10:07.986Z,9.70
2023-01-26T06:13:05.989Z,10.90
2023-01-26T06:16:16.760Z,11.70
2023-01-26T06:18:58.055Z,12.80
2023-01-26T06:21:43.786Z,7.50
2023-01-26T06:24:19.003Z,12.60
2023-01-26T06:26:48.840Z,11.60
2023-01-26T06:29:16.853Z,11.10
2023-01-26T06:31:43.993Z,12.00
2023-01-26T06:34:11.654Z,9.80
2023-01-26T06:36:41.258Z,9.60
2023-01-26T06:39:12.386Z,8.60
2023-01-26T06:41:43.419Z,9.20
2023-01-26T06:44:11.126Z,11.30
2023-01-26T06:46:39.803Z,7.50
2023-01-26T06:49:06.784Z,9.90
2023-01-26T06:51:53.107Z,9.50
2023-01-26T06:54:20.994Z,12.30
2023-01-26T06:57:13.876Z,5.80
2023-01-26T07:00:16.748Z,9.30
2023-01-26T07:02:54.784Z,12.30
2023-01-26T07:05:21.872Z,10.90
2023-01-26T07:07:48.809Z,9.80
2023-01-26T07:10:15.749Z,10.80
2023-01-26T07:12:45.305Z,10.10
2023-01-26T07:15:12.897Z,11.10
2023-01-26T07:17:40.088Z,7.90
2023-01-26T07:20:07.961Z,11.80
2023-01-26T07:22:35.497Z,10.70
2023-01-26T07:25:02.759Z,9.40
2023-01-26T07:27:30.184Z,9.60
2023-01-26T07:29:57.178Z,13.50
2023-01-26T07:32:24.325Z,11.70
2023-01-26T07:34:51.352Z,9.20
2023-01-26T07:37:18.456Z,8.80
2023-01-26T07:39:45.590Z,8.90
2023-01-26T07:42:12.750Z,8.50
2023-01-26T07:44:48.851Z,10.00
2023-01-26T07:47:15.944Z,7.50
2023-01-26T07:49:43.004Z,11.20
2023-01-26T07:52:10.304Z,9.10
2023-01-26T07:54:37.695Z,10.40
2023-01-26T07:57:06.530Z,10.00
2023-01-26T07:59:34.116Z,10.30
2023-01-26T08:02:01.379Z,8.80
2023-01-26T08:04:28.562Z,9.50
2023-01-26T08:06:55.791Z,8.50
2023-01-26T08:09:24.290Z,9.30
2023-01-26T08:11:51.526Z,8.90
2023-01-26T08:14:18.591Z,8.70
2023-01-26T08:16:45.855Z,9.40
2023-01-26T08:19:13.053Z,10.60
2023-01-26T08:21:40.203Z,10.70
2023-01-26T08:24:07.461Z,7.30
2023-01-26T08:26:34.584Z,8.90
2023-01-26T08:29:01.678Z,8.30
2023-01-26T08:31:29.199Z,12.60
2023-01-26T08:33:56.503Z,9.10
2023-01-26T08:36:23.622Z,8.80
2023-01-26T08:38:51.880Z,10.20
2023-01-26T08:41:19.093Z,10.20
2023-01-26T08:43:46.607Z,7.40
2023-01-26T08:46:14.629Z,8.00
2023-01-26T08:48:41.799Z,7.90
2023-01-26T08:51:08.919Z,9.40
2023-01-26T08:53:37.115Z,10.60
2023-01-26T08:56:06.524Z,13.80
2023-01-26T08:58:34.984Z,7.90
2023-01-26T09:01:07.362Z,9.90
2023-01-26T09:03:35.037Z,8.30
2023-01-26T09:06:05.088Z,8.80
2023-01-26T09:08:32.399Z,10.40
2023-01-26T09:10:59.559Z,8.00
2023-01-26T09:13:27.154Z,6.70
2023-01-26T09:15:54.200Z,8.00
2023-01-26T09:18:21.302Z,9.30
2023-01-26T09:20:50.557Z,8.90
2023-01-26T09:23:17.829Z,9.00
2023-01-26T09:25:45.045Z,7.80
2023-01-26T09:28:12.127Z,9.70
2023-01-26T09:30:39.228Z,10.00
2023-01-26T09:33:06.784Z,8.30
2023-01-26T09:35:33.843Z,9.40
2023-01-26T09:38:00.917Z,9.60
2023-01-26T09:40:44.632Z,8.00
2023-01-26T09:43:21.767Z,8.00
2023-01-26T09:46:17.938Z,8.90
2023-01-26T09:49:31.351Z,7.70
2023-01-26T09:52:05.868Z,7.90
2023-01-26T09:54:46.084Z,9.20
2023-01-26T09:57:23.346Z,8.60
2023-01-26T09:59:57.198Z,9.10
2023-01-26T10:02:48.956Z,9.70
2023-01-26T10:05:24.983Z,7.10
2023-01-26T10:07:52.297Z,11.80
2023-01-26T10:10:38.693Z,10.30
2023-01-26T10:13:05.724Z,9.70
2023-01-26T10:15:43.085Z,9.50
2023-01-26T10:18:20.832Z,8.70
2023-01-26T10:20:54.220Z,6.40
2023-01-26T10:23:32.643Z,8.50
2023-01-26T10:26:16.234Z,9.20
2023-01-26T10:28:45.715Z,7.20
2023-01-26T10:31:24.878Z,7.60
2023-01-26T10:33:56.264Z,6.70
2023-01-26T10:36:23.821Z,7.20
2023-01-26T10:38:52.168Z,8.30
2023-01-26T10:41:19.179Z,6.80
2023-01-26T10:43:58.766Z,7.30
2023-01-26T10:46:40.930Z,6.40
2023-01-26T10:49:07.996Z,4.90
2023-01-26T10:51:38.125Z,6.20
2023-01-26T10:54:20.436Z,8.10
2023-01-26T10:57:04.185Z,6.40
2023-01-26T10:59:43.536Z,6.70
2023-01-26T11:02:19.198Z,8.00
2023-01-26T11:05:18.689Z,8.00
2023-01-26T11:07:48.941Z,6.70
2023-01-26T11:10:35.742Z,6.30
2023-01-26T11:13:18.837Z,7.00
2023-01-26T11:15:48.892Z,6.80
2023-01-26T11:18:20.630Z,6.40
2023-01-26T11:20:56.026Z,7.90
2023-01-26T11:23:52.955Z,6.40
2023-01-26T11:26:55.701Z,5.60
2023-01-26T11:29:47.647Z,8.00
2023-01-26T11:32:21.477Z,6.70
2023-01-26T11:35:13.384Z,8.10
2023-01-26T11:38:12.612Z,7.20
2023-01-26T11:40:52.763Z,8.70
2023-01-26T11:43:59.137Z,6.40
2023-01-26T11:47:15.675Z,6.70
2023-01-26T11:50:00.158Z,8.70
2023-01-26T11:52:54.520Z,7.70
2023-01-26T11:55:45.145Z,7.60
2023-01-26T11:58:42.268Z,9.80
2023-01-26T12:01:14.938Z,7.40
2023-01-26T12:03:49.194Z,5.80
2023-01-26T12:06:19.650Z,7.90
2023-01-26T12:08:55.997Z,5.70
2023-01-26T12:11:40.292Z,7.10
2023-01-26T12:14:45.139Z,7.50
2023-01-26T12:17:28.190Z,8.70
2023-01-26T12:20:13.845Z,7.60
2023-01-26T12:22:52.062Z,9.50
2023-01-26T12:25:20.505Z,9.40
2023-01-26T12:27:56.049Z,8.70
2023-01-26T12:30:35.046Z,8.80
2023-01-26T12:33:03.184Z,10.20
2023-01-26T12:35:45.390Z,10.90
2023-01-26T12:38:27.626Z,7.10
2023-01-26T12:41:06.800Z,6.10
2023-01-26T12:43:34.364Z,8.30
2023-01-26T12:46:04.853Z,6.50
2023-01-26T12:48:46.959Z,7.70
2023-01-26T12:51:27.705Z,7.70
2023-01-26T12:54:11.149Z,7.80
2023-01-26T12:56:47.647Z,6.10
2023-01-26T12:59:46.803Z,5.70
2023-01-26T13:02:31.243Z,7.90
2023-01-26T13:05:01.051Z,8.20
2023-01-26T13:07:40.364Z,7.10
2023-01-26T13:10:21.476Z,8.10
2023-01-26T13:13:00.776Z,5.90
2023-01-26T13:15:30.814Z,8.40
2023-01-26T13:18:03.111Z,7.40
2023-01-26T13:20:45.230Z,8.80
2023-01-26T13:23:27.930Z,9.20
2023-01-26T13:26:33.115Z,7.50
2023-01-26T13:29:24.818Z,5.80
2023-01-26T13:31:56.672Z,7.50
2023-01-26T13:34:56.949Z,8.20
2023-01-26T13:37:46.129Z,6.50
2023-01-26T13:40:33.001Z,5.90
2023-01-26T13:43:25.195Z,8.10
2023-01-26T13:46:06.109Z,7.30
2023-01-26T13:48:40.927Z,7.70
2023-01-26T13:51:12.570Z,8.20
2023-01-26T13:53:56.201Z,8.20
2023-01-26T13:56:29.482Z,7.50
2023-01-26T13:59:18.956Z,6.80
2023-01-26T14:01:49.003Z,7.60
2023-01-26T14:04:27.811Z,7.20
2023-01-26T14:07:00.836Z,9.00
2023-01-26T14:09:31.079Z,10.50
2023-01-26T14:12:08.003Z,9.60
2023-01-26T14:14:37.249Z,10.10
2023-01-26T14:17:22.456Z,6.90
2023-01-26T14:19:49.602Z,8.20
2023-01-26T14:22:17.614Z,8.20
2023-01-26T14:24:48.765Z,9.90
2023-01-26T14:27:39.294Z,5.90
2023-01-26T14:30:28.361Z,6.90
2023-01-26T14:33:07.536Z,8.70
2023-01-26T14:35:41.891Z,5.00
2023-01-26T14:38:20.837Z,7.30
2023-01-26T14:41:05.752Z,7.50
2023-01-26T14:43:57.135Z,8.40
2023-01-26T14:46:32.533Z,7.60
2023-01-26T14:49:27.652Z,6.80
2023-01-26T14:52:41.604Z,7.90
2023-01-26T14:55:29.193Z,8.70
2023-01-26T14:58:35.906Z,7.70
2023-01-26T15:01:15.119Z,8.70
2023-01-26T15:03:53.991Z,6.50
2023-01-26T15:06:28.214Z,6.80
2023-01-26T15:09:28.683Z,7.80
2023-01-26T15:12:19.015Z,8.40
2023-01-26T15:15:05.320Z,6.00
2023-01-26T15:20:30.102Z,7.00
2023-01-26T15:23:28.013Z,7.40
2023-01-26T15:26:35.625Z,10.60
2023-01-26T15:29:32.125Z,7.30
2023-01-26T15:32:05.824Z,8.30
2023-01-26T15:34:41.558Z,9.40
2023-01-26T15:37:30.200Z,12.00
2023-01-26T15:39:57.597Z,9.20
2023-01-26T15:42:28.420Z,9.20
2023-01-26T15:44:56.026Z,7.10
2023-01-26T15:47:23.263Z,7.10
2023-01-26T15:49:50.348Z,8.80
2023-01-26T15:52:21.047Z,7.90
2023-01-26T15:54:49.180Z,8.20
2023-01-26T15:57:16.203Z,14.90
2023-01-26T15:59:43.706Z,10.70
2023-01-26T16:02:16.123Z,8.30
2023-01-26T16:04:43.824Z,9.70
2023-01-26T16:07:13.213Z,10.50
2023-01-26T16:09:41.204Z,11.40
2023-01-26T16:12:25.913Z,9.80
2023-01-26T16:14:58.132Z,8.40
2023-01-26T16:17:25.652Z,9.40
2023-01-26T16:19:52.742Z,10.50
2023-01-26T16:22:20.095Z,9.10
2023-01-26T16:24:47.190Z,9.80
2023-01-26T16:27:14.427Z,12.70
2023-01-26T16:29:41.694Z,11.50
2023-01-26T16:32:26.162Z,11.20
2023-01-26T16:34:53.295Z,10.60
2023-01-26T16:37:20.382Z,10.40
2023-01-26T16:39:47.509Z,9.50
2023-01-26T16:42:19.580Z,9.30
2023-01-26T16:44:47.297Z,11.70
2023-01-26T16:47:14.601Z,12.30
2023-01-26T16:49:41.641Z,13.20
2023-01-26T16:52:09.428Z,12.40
2023-01-26T16:54:37.113Z,13.10
2023-01-26T16:57:04.246Z,11.70
2023-01-26T16:59:31.276Z,12.40
2023-01-26T17:01:58.538Z,12.40
2023-01-26T17:04:25.702Z,15.90
2023-01-26T17:06:52.721Z,10.70
2023-01-26T17:09:20.760Z,10.70
2023-01-26T17:11:47.831Z,16.60
2023-01-26T17:14:14.959Z,14.00
2023-01-26T17:16:42.110Z,15.60
2023-01-26T17:19:09.680Z,17.70
2023-01-26T17:21:36.971Z,14.60
2023-01-26T17:24:06.339Z,14.10
2023-01-26T17:26:33.508Z,12.00
2023-01-26T17:29:00.559Z,13.90
2023-01-26T17:31:28.108Z,12.40
2023-01-26T17:33:55.374Z,14.60
2023-01-26T17:36:22.887Z,12.80
2023-01-26T17:38:50.044Z,14.00
2023-01-26T17:41:17.580Z,13.10
2023-01-26T17:43:45.332Z,12.20
2023-01-26T17:46:17.887Z,14.10
2023-01-26T17:48:45.971Z,10.60
2023-01-26T17:51:18.924Z,12.60
2023-01-26T17:53:51.814Z,11.10
2023-01-26T17:56:20.585Z,9.40
2023-01-26T17:58:49.870Z,12.30
2023-01-26T18:01:19.347Z,11.60
2023-01-26T18:03:46.503Z,13.20
2023-01-26T18:06:13.931Z,10.60
2023-01-26T18:08:41.056Z,10.40
2023-01-26T18:11:11.361Z,11.00
2023-01-26T18:13:38.784Z,10.70
2023-01-26T18:16:07.629Z,10.50
2023-01-26T18:18:35.144Z,8.40
2023-01-26T18:21:22.081Z,9.00
2023-01-26T18:23:51.327Z,13.00
2023-01-26T18:26:21.882Z,11.20
2023-01-26T18:28:49.049Z,12.10
2023-01-26T18:31:23.865Z,10.20
2023-01-26T18:33:51.408Z,9.30
2023-01-26T18:36:19.978Z,8.30
2023-01-26T18:38:54.386Z,9.30
2023-01-26T18:41:22.716Z,10.70
2023-01-26T18:43:51.583Z,9.40
2023-01-26T18:46:19.163Z,8.90
2023-01-26T18:48:46.486Z,10.30
2023-01-26T18:51:14.096Z,8.70
2023-01-26T18:53:41.235Z,11.30
2023-01-26T18:56:14.664Z,10.70
2023-01-26T18:58:42.287Z,9.40
2023-01-26T19:01:14.752Z,9.90
2023-01-26T19:03:46.749Z,11.70
2023-01-26T19:06:19.297Z,13.70
2023-01-26T19:08:54.825Z,11.40
2023-01-26T19:11:21.991Z,11.20
2023-01-26T19:13:49.081Z,13.60
2023-01-26T19:16:16.441Z,9.90
2023-01-26T19:18:43.615Z,9.60
2023-01-26T19:21:10.716Z,11.60
2023-01-26T19:23:39.375Z,10.10
2023-01-26T19:26:14.160Z,8.10
2023-01-26T19:28:41.533Z,9.90
2023-01-26T19:31:09.646Z,8.90
2023-01-26T19:33:36.860Z,9.30
2023-01-26T19:36:05.476Z,8.20
2023-01-26T19:38:33.488Z,9.30
2023-01-26T19:41:01.652Z,10.30
2023-01-26T19:43:29.146Z,7.90
2023-01-26T19:45:56.885Z,8.80
2023-01-26T19:48:26.181Z,10.00
2023-01-26T19:50:58.724Z,9.90
2023-01-26T19:53:26.800Z,11.50
2023-01-26T19:55:53.840Z,13.40
2023-01-26T19:58:21.055Z,12.00
2023-01-26T20:00:48.074Z,9.40
2023-01-26T20:03:15.213Z,10.60
2023-01-26T20:05:42.288Z,8.30
2023-01-26T20:08:09.423Z,8.70
2023-01-26T20:10:36.545Z,10.10
2023-01-26T20:13:03.649Z,17.70
2023-01-26T20:15:34.041Z,18.20
2023-01-26T20:18:02.971Z,19.10
2023-01-26T20:20:30.228Z,17.00
2023-01-26T20:22:57.439Z,13.90
2023-01-26T20:25:24.693Z,13.50
2023-01-26T20:27:52.086Z,10.70
2023-01-26T20:30:19.901Z,11.60
2023-01-26T20:32:46.978Z,10.70
2023-01-26T20:35:14.287Z,9.90
2023-01-26T20:37:41.390Z,13.30
2023-01-26T20:40:08.942Z,11.60
2023-01-26T20:42:36.032Z,10.20
2023-01-26T20:45:03.212Z,7.80
2023-01-26T20:47:33.026Z,10.90
2023-01-26T20:50:01.310Z,9.10
2023-01-26T20:52:28.921Z,10.50
2023-01-26T20:54:56.011Z,10.20
2023-01-26T20:57:23.037Z,8.80
2023-01-26T20:59:50.091Z,10.00
2023-01-26T21:02:17.287Z,9.80
2023-01-26T21:04:44.554Z,8.50
2023-01-26T21:07:11.661Z,10.20
2023-01-26T21:09:39.046Z,9.20
2023-01-26T21:12:06.107Z,9.90
2023-01-26T21:14:33.680Z,8.40
2023-01-26T21:17:01.164Z,8.40
2023-01-26T21:19:28.363Z,10.90
2023-01-26T21:21:55.489Z,10.40
2023-01-26T21:24:22.833Z,8.80
2023-01-26T21:26:50.018Z,8.90
2023-01-26T21:29:17.629Z,6.90
2023-01-26T21:31:48.715Z,8.10
2023-01-26T21:34:15.824Z,9.80
2023-01-26T21:36:42.949Z,10.40
2023-01-26T21:39:12.596Z,9.60
2023-01-26T21:41:59.138Z,10.40
2023-01-26T21:44:28.819Z,9.60
2023-01-26T21:47:00.239Z,8.90
2023-01-26T21:49:28.062Z,7.90
2023-01-26T21:52:13.977Z,7.10
2023-01-26T21:54:41.204Z,10.30
2023-01-26T21:57:28.749Z,11.60
2023-01-26T21:59:56.113Z,10.50
2023-01-26T22:02:23.652Z,11.90
2023-01-26T22:04:51.091Z,12.80
2023-01-26T22:07:18.387Z,11.10
2023-01-26T22:09:45.644Z,11.60
2023-01-26T22:12:12.781Z,9.70
2023-01-26T22:14:40.052Z,13.20
2023-01-26T22:17:07.259Z,14.30
2023-01-26T22:19:34.655Z,13.80
2023-01-26T22:22:02.989Z,13.40
2023-01-26T22:24:30.075Z,12.20
2023-01-26T22:26:57.157Z,12.10
2023-01-26T22:29:24.430Z,14.90
2023-01-26T22:31:51.664Z,11.80
2023-01-26T22:34:18.831Z,12.50
2023-01-26T22:36:45.938Z,14.30
2023-01-26T22:39:12.995Z,13.60
2023-01-26T22:41:40.144Z,14.80
2023-01-26T22:44:07.470Z,13.30
2023-01-26T22:46:34.845Z,12.90
2023-01-26T22:49:04.225Z,13.10
2023-01-26T22:51:32.961Z,14.50
2023-01-26T22:54:00.034Z,15.60
2023-01-26T22:56:27.343Z,11.50
2023-01-26T22:58:59.050Z,12.40
2023-01-26T23:01:32.433Z,12.20
2023-01-26T23:04:00.552Z,10.60
2023-01-26T23:06:28.645Z,12.50
2023-01-26T23:08:57.813Z,11.00
2023-01-26T23:11:27.420Z,14.60
2023-01-26T23:13:56.278Z,15.80
2023-01-26T23:16:24.761Z,15.90
2023-01-26T23:18:53.737Z,15.00
2023-01-26T23:21:21.212Z,17.00
2023-01-26T23:23:48.762Z,13.40
2023-01-26T23:26:15.989Z,14.20
2023-01-26T23:28:44.135Z,12.50
2023-01-26T23:31:12.850Z,13.40
2023-01-26T23:33:40.049Z,14.80
2023-01-26T23:36:08.563Z,14.90
2023-01-26T23:38:35.683Z,15.00
2023-01-26T23:41:04.875Z,15.20
2023-01-26T23:43:32.372Z,16.20
2023-01-26T23:45:59.767Z,17.70
2023-01-26T23:48:26.864Z,20.80
2023-01-26T23:51:03.513Z,13.80
2023-01-26T23:53:31.201Z,13.80
2023-01-26T23:56:11.212Z,19.30
2023-01-26T23:58:38.332Z,14.60
